Time;durP1;ratioP1;P1;durP2;ratioP2;P2;SDS_P1;SDS_P2;PMS_P1;PMS_P2;Temp;Humidity;BMP_temperature;BMP_pressure;BME280_temperature;BME280_humidity;BME280_pressure;Samples;Min_cycle;Max_cycle;Signal;HPM_P1;HPM_P2
2022/11/22 00:00:20;;;;;;;8.27;4.80;;;;;;;7.17;67.78;98764.13;686739;28;1533;-87
2022/11/22 00:00:40;;;;;;;8.07;4.20;;;;;;;7.25;67.63;98772.84;687601;28;1116;-88
2022/11/22 00:01:02;;;;;;;5.35;3.30;;;;;;;7.26;67.68;98774.56;689201;28;1242;-86
2022/11/22 00:01:22;;;;;;;4.40;2.95;;;;;;;7.25;67.74;98767.66;687239;28;1714;-86
2022/11/22 00:01:43;;;;;;;4.97;3.17;;;;;;;7.29;67.46;98768.56;688394;28;1216;-86
2022/11/22 00:02:04;;;;;;;4.88;3.20;;;;;;;7.34;67.80;98777.22;689359;28;1589;-87
2022/11/22 00:02:24;;;;;;;4.00;3.10;;;;;;;7.29;67.71;98763.38;695783;28;1149;-86
2022/11/22 00:02:45;;;;;;;5.07;3.07;;;;;;;7.33;67.91;98771.19;689411;28;1576;-87
2022/11/22 00:03:07;;;;;;;7.10;3.30;;;;;;;7.35;67.97;98764.28;690701;28;1718;-88
2022/11/22 00:03:27;;;;;;;7.53;3.10;;;;;;;7.44;67.64;98768.69;688168;28;1286;-87
2022/11/22 00:03:48;;;;;;;5.80;3.00;;;;;;;7.45;67.92;98765.22;691109;28;931;-88
2022/11/22 00:04:08;;;;;;;3.63;2.33;;;;;;;7.52;67.65;98771.31;695515;28;1735;-86
2022/11/22 00:04:29;;;;;;;3.60;2.42;;;;;;;7.54;67.65;98774.81;693425;28;1584;-88
2022/11/22 00:04:50;;;;;;;3.60;2.35;;;;;;;7.53;67.91;98773.06;688247;28;1189;-87
2022/11/22 00:05:11;;;;;;;3.97;2.50;;;;;;;7.49;67.50;98763.53;688012;28;1531;-87
2022/11/22 00:05:31;;;;;;;3.50;2.30;;;;;;;7.51;67.87;98759.22;682863;29;1540;-87
2022/11/22 00:05:52;;;;;;;5.80;2.47;;;;;;;7.55;67.50;98771.34;690316;28;1280;-88
2022/11/22 00:06:13;;;;;;;6.05;2.40;;;;;;;7.56;67.69;98767.91;690569;28;1472;-87
2022/11/22 00:06:33;;;;;;;5.80;2.50;;;;;;;7.56;67.46;98760.13;691086;28;917;-87
2022/11/22 00:06:54;;;;;;;4.10;2.57;;;;;;;7.61;66.97;98768.81;691439;28;1116;-87
2022/11/22 00:07:14;;;;;;;4.15;2.67;;;;;;;7.60;67.32;98766.19;690753;28;1475;-87
2022/11/22 00:07:36;;;;;;;4.78;2.67;;;;;;;7.58;66.89;98765.31;690670;28;1957;-87
2022/11/22 00:07:57;;;;;;;6.25;2.50;;;;;;;7.61;67.10;98755.81;689017;28;1462;-87
2022/11/22 00:08:17;;;;;;;6.03;2.33;;;;;;;7.60;66.74;98761.88;690455;28;1271;-87
2022/11/22 00:08:38;;;;;;;8.10;2.40;;;;;;;7.59;67.16;98756.66;688476;28;1703;-87
2022/11/22 00:08:58;;;;;;;5.97;2.50;;;;;;;7.64;67.19;98770.56;688443;28;1422;-87
2022/11/22 00:09:19;;;;;;;6.30;2.60;;;;;;;7.57;66.59;98748.88;688002;28;1452;-87
2022/11/22 00:09:40;;;;;;;4.43;2.60;;;;;;;7.54;66.83;98760.09;693579;28;1293;-87
2022/11/22 00:10:00;;;;;;;4.23;2.37;;;;;;;7.57;66.92;98745.41;690964;28;1522;-87
2022/11/22 00:10:21;;;;;;;3.55;2.30;;;;;;;7.66;66.78;98756.75;688386;28;1172;-88
2022/11/22 00:10:41;;;;;;;3.95;2.30;;;;;;;7.72;66.87;98768.00;688630;28;933;-87
2022/11/22 00:11:02;;;;;;;4.77;2.33;;;;;;;7.66;67.11;98754.16;694201;28;1588;-87
2022/11/22 00:11:22;;;;;;;5.00;2.40;;;;;;;7.67;66.92;98750.69;693927;28;1290;-88
2022/11/22 00:11:43;;;;;;;4.20;2.30;;;;;;;7.67;66.37;98744.59;692202;28;1128;-87
2022/11/22 00:12:04;;;;;;;4.30;2.20;;;;;;;7.70;66.56;98746.38;690659;28;1544;-87
2022/11/22 00:12:24;;;;;;;3.92;2.10;;;;;;;7.72;66.37;98757.63;687954;28;1222;-86
2022/11/22 00:12:45;;;;;;;5.00;2.20;;;;;;;7.75;66.87;98758.50;688315;28;1230;-87
2022/11/22 00:13:05;;;;;;;4.80;2.43;;;;;;;7.75;66.46;98755.06;687282;28;1565;-87
2022/11/22 00:13:26;;;;;;;5.28;2.65;;;;;;;7.76;66.19;98756.81;688184;28;1456;-88
2022/11/22 00:13:47;;;;;;;5.23;2.60;;;;;;;7.75;66.36;98748.13;691275;28;783;-88
2022/11/22 00:14:07;;;;;;;5.13;2.43;;;;;;;7.79;66.59;98754.22;688542;28;1315;-87
2022/11/22 00:14:28;;;;;;;4.95;2.17;;;;;;;7.85;66.32;98754.25;688139;28;1279;-87
2022/11/22 00:14:48;;;;;;;4.30;2.00;;;;;;;7.93;66.39;98752.56;688119;28;1288;-88
2022/11/22 00:15:10;;;;;;;3.80;2.05;;;;;;;7.84;66.25;98742.13;690745;28;1170;-88
2022/11/22 00:15:30;;;;;;;4.65;2.30;;;;;;;7.83;66.25;98735.22;692784;28;1993;-86
2022/11/22 00:15:59;;;;;;;4.57;2.30;;;;;;;7.93;66.22;98744.78;693722;28;950;-86
2022/11/22 00:16:20;;;;;;;3.65;2.10;;;;;;;7.98;66.19;98741.38;689688;28;1985;-87
2022/11/22 00:16:55;;;;;;;2.17;1.95;;;;;;;7.95;65.85;98750.88;691168;28;811;-88
2022/11/22 00:17:16;;;;;;;3.05;2.03;;;;;;;7.93;65.78;98742.19;690926;28;1082;-88
2022/11/22 00:17:37;;;;;;;4.57;2.13;;;;;;;7.88;65.94;98738.72;691003;28;1014;-88
2022/11/22 00:17:58;;;;;;;4.00;2.20;;;;;;;7.89;65.88;98743.03;693323;28;1574;-87
2022/11/22 00:18:18;;;;;;;3.42;2.30;;;;;;;7.89;66.11;98743.03;690544;28;1596;-87
2022/11/22 00:18:39;;;;;;;2.97;2.33;;;;;;;8.01;66.09;98750.03;688284;28;957;-87
2022/11/22 00:19:00;;;;;;;3.60;2.20;;;;;;;8.09;65.95;98743.16;690587;28;1674;-88
2022/11/22 00:19:20;;;;;;;4.47;2.40;;;;;;;8.16;65.19;98748.41;684215;28;1243;-87
2022/11/22 00:19:41;;;;;;;4.60;2.30;;;;;;;8.10;65.02;98738.81;690692;28;1013;-87
2022/11/22 00:20:03;;;;;;;3.38;2.38;;;;;;;8.06;65.26;98745.72;689836;28;1343;-87
2022/11/22 00:20:23;;;;;;;3.28;2.15;;;;;;;8.04;65.54;98744.84;688228;28;1241;-87
2022/11/22 00:20:44;;;;;;;4.03;2.13;;;;;;;8.08;65.29;98749.22;691090;28;787;-88
2022/11/22 00:21:06;;;;;;;3.28;1.90;;;;;;;8.06;65.30;98753.50;688317;28;1085;-88
2022/11/22 00:21:27;;;;;;;3.53;1.90;;;;;;;8.06;65.47;98747.47;690548;28;1325;-86
2022/11/22 00:21:48;;;;;;;3.40;2.00;;;;;;;8.01;65.19;98750.03;690953;28;1257;-88
2022/11/22 00:22:08;;;;;;;3.45;2.10;;;;;;;8.04;65.22;98744.84;690416;28;1346;-86
2022/11/22 00:22:30;;;;;;;2.67;2.10;;;;;;;8.15;65.15;98757.91;693329;28;1090;-87
2022/11/22 00:22:51;;;;;;;3.15;2.20;;;;;;;8.07;65.20;98741.41;690755;28;807;-87
2022/11/22 00:23:12;;;;;;;3.58;2.20;;;;;;;8.16;65.16;98738.84;690311;28;1573;-87
2022/11/22 00:23:33;;;;;;;4.90;2.30;;;;;;;8.14;64.88;98745.78;688183;28;1058;-87
2022/11/22 00:23:55;;;;;;;5.70;2.40;;;;;;;8.28;65.05;98747.59;688076;28;1046;-87
2022/11/22 00:24:16;;;;;;;6.72;2.58;;;;;;;8.14;65.10;98729.31;686472;28;1325;-87
2022/11/22 00:24:37;;;;;;;4.72;2.35;;;;;;;8.28;64.74;98737.19;688302;28;922;-88
2022/11/22 00:24:57;;;;;;;4.00;2.20;;;;;;;8.23;64.75;98745.81;688255;28;1763;-87
2022/11/22 00:25:18;;;;;;;2.55;1.90;;;;;;;8.15;64.78;98742.31;688186;28;1167;-87
2022/11/22 00:25:39;;;;;;;3.40;2.17;;;;;;;8.15;65.05;98733.63;690649;28;799;-87
2022/11/22 00:25:59;;;;;;;2.60;2.00;;;;;;;8.17;64.97;98739.75;688100;28;1302;-87
2022/11/22 00:26:20;;;;;;;3.20;2.20;;;;;;;8.19;65.19;98738.88;685152;28;1248;-88
2022/11/22 00:26:40;;;;;;;2.80;2.10;;;;;;;8.15;64.97;98734.53;688240;28;1273;-87
2022/11/22 00:27:01;;;;;;;3.33;2.10;;;;;;;8.14;65.03;98730.19;685450;28;1209;-87
2022/11/22 00:27:21;;;;;;;2.83;1.90;;;;;;;8.19;64.63;98733.69;685320;28;1026;-87
2022/11/22 00:27:42;;;;;;;2.65;1.70;;;;;;;8.18;64.79;98737.13;685452;28;1152;-87
2022/11/22 00:28:03;;;;;;;3.53;1.75;;;;;;;8.25;64.92;98740.63;685500;28;1339;-87
2022/11/22 00:28:23;;;;;;;3.87;1.87;;;;;;;8.20;64.89;98739.75;687375;28;1184;-87
2022/11/22 00:28:44;;;;;;;4.13;2.10;;;;;;;8.19;64.96;98746.69;690788;28;1325;-88
2022/11/22 00:29:04;;;;;;;3.67;2.30;;;;;;;8.30;64.60;98738.06;687949;28;1256;-89
2022/11/22 00:29:25;;;;;;;4.50;2.20;;;;;;;8.31;64.74;98737.19;689151;28;1150;-88
2022/11/22 00:29:46;;;;;;;4.47;2.05;;;;;;;8.26;64.46;98750.16;687963;28;1190;-87
2022/11/22 00:30:07;;;;;;;4.22;2.00;;;;;;;8.26;64.93;98751.88;690262;28;1428;-87
2022/11/22 00:30:28;;;;;;;3.47;2.10;;;;;;;8.26;64.61;98741.50;690368;28;1565;-87
2022/11/22 00:30:48;;;;;;;3.47;2.08;;;;;;;8.38;64.50;98738.09;688139;28;1317;-87
2022/11/22 00:31:24;;;;;;;2.30;1.93;;;;;;;8.38;64.49;98736.38;685041;28;1252;-87
2022/11/22 00:31:44;;;;;;;3.00;2.13;;;;;;;8.28;64.09;98737.19;690900;28;1000;-87
2022/11/22 00:32:05;;;;;;;3.20;2.15;;;;;;;8.35;63.96;98738.94;687991;28;1201;-87
2022/11/22 00:32:25;;;;;;;3.20;2.00;;;;;;;8.36;64.07;98732.91;690679;28;1194;-87
2022/11/22 00:32:46;;;;;;;2.10;1.80;;;;;;;8.39;63.93;98745.91;685492;28;1118;-87
2022/11/22 00:33:07;;;;;;;2.75;2.00;;;;;;;8.39;63.97;98729.41;688844;28;1299;-86
2022/11/22 00:33:27;;;;;;;4.10;2.10;;;;;;;8.31;63.94;98732.00;684268;28;1257;-87
2022/11/22 00:33:48;;;;;;;4.40;2.10;;;;;;;8.31;64.09;98732.88;688165;28;1343;-86
2022/11/22 00:34:09;;;;;;;2.50;1.90;;;;;;;8.31;64.45;98729.41;687604;28;1754;-87
2022/11/22 00:34:29;;;;;;;2.17;1.97;;;;;;;8.43;63.80;98732.06;685197;28;1221;-87
2022/11/22 00:34:50;;;;;;;3.92;1.90;;;;;;;8.40;63.71;98729.44;685385;28;1186;-87
2022/11/22 00:35:11;;;;;;;4.45;1.90;;;;;;;8.43;63.84;98732.06;686929;28;1752;-87
2022/11/22 00:35:31;;;;;;;4.55;1.77;;;;;;;8.39;63.84;98737.22;688084;28;1891;-87
2022/11/22 00:35:52;;;;;;;3.50;1.70;;;;;;;8.26;64.07;98725.91;690799;28;1395;-87
2022/11/22 00:36:13;;;;;;;3.73;1.80;;;;;;;8.32;64.02;98720.75;688010;28;1185;-87
2022/11/22 00:36:33;;;;;;;3.83;2.13;;;;;;;8.40;64.24;98731.19;690674;28;1272;-87
2022/11/22 00:36:54;;;;;;;4.07;2.40;;;;;;;8.36;63.72;98719.91;688074;28;762;-86
2022/11/22 00:37:14;;;;;;;3.53;2.45;;;;;;;8.44;63.69;98733.78;690590;28;1610;-86
2022/11/22 00:37:35;;;;;;;3.20;2.28;;;;;;;8.42;63.89;98724.25;688124;28;1069;-87
2022/11/22 00:37:55;;;;;;;5.80;2.40;;;;;;;8.43;63.72;98723.38;688089;28;716;-87
2022/11/22 00:38:16;;;;;;;6.22;2.35;;;;;;;8.26;63.96;98718.09;687680;28;1593;-87
2022/11/22 00:38:36;;;;;;;7.03;2.30;;;;;;;8.16;64.66;98720.66;693503;28;1298;-87
2022/11/22 00:38:57;;;;;;;5.20;2.10;;;;;;;8.18;64.55;98731.94;687797;28;1550;-86
2022/11/22 00:39:17;;;;;;;4.85;2.20;;;;;;;8.31;64.41;98722.50;694395;28;1510;-86
2022/11/22 00:39:38;;;;;;;3.50;2.20;;;;;;;8.40;64.12;98732.03;690337;28;1141;-87
2022/11/22 00:39:59;;;;;;;3.30;2.22;;;;;;;8.41;64.42;98728.56;687732;28;1250;-87
2022/11/22 00:40:19;;;;;;;4.75;2.50;;;;;;;8.23;64.24;98725.03;683916;28;1222;-86
2022/11/22 00:40:40;;;;;;;4.43;2.42;;;;;;;8.20;64.33;98718.97;690645;28;1736;-87
2022/11/22 00:41:01;;;;;;;4.70;2.30;;;;;;;8.26;64.59;98725.91;695752;28;1063;-87
2022/11/22 00:41:21;;;;;;;3.90;2.00;;;;;;;8.26;64.60;98723.31;690526;28;1705;-86
2022/11/22 00:41:42;;;;;;;4.20;2.00;;;;;;;8.14;64.58;98718.91;685169;28;1255;-86
2022/11/22 00:42:03;;;;;;;5.40;2.10;;;;;;;8.07;64.96;98718.91;690275;28;1786;-86
2022/11/22 00:42:23;;;;;;;5.88;2.20;;;;;;;8.03;64.93;98713.66;690625;28;1217;-87
2022/11/22 00:42:44;;;;;;;5.50;2.20;;;;;;;8.01;65.34;98713.69;693499;28;1052;-86
2022/11/22 00:43:05;;;;;;;3.50;2.20;;;;;;;8.04;65.54;98725.81;692165;28;1509;-86
2022/11/22 00:43:26;;;;;;;3.13;2.27;;;;;;;7.98;65.25;98718.84;693007;28;1185;-87
2022/11/22 00:43:46;;;;;;;2.30;2.10;;;;;;;8.00;65.34;98718.84;690824;28;1174;-86
2022/11/22 00:44:07;;;;;;;2.33;2.03;;;;;;;8.00;65.42;98718.84;692981;28;1462;-86
2022/11/22 00:44:27;;;;;;;2.73;1.83;;;;;;;7.96;65.35;98717.97;690488;28;1284;-86
2022/11/22 00:44:48;;;;;;;3.73;1.87;;;;;;;7.92;65.35;98724.88;685348;28;728;-86
2022/11/22 00:45:09;;;;;;;3.50;1.77;;;;;;;7.93;65.67;98720.56;687679;28;1693;-86
2022/11/22 00:45:29;;;;;;;3.20;1.85;;;;;;;7.93;65.76;98721.41;695800;28;1508;-86
2022/11/22 00:45:50;;;;;;;2.70;2.00;;;;;;;7.92;65.78;98719.69;693503;28;732;-86
2022/11/22 00:46:10;;;;;;;3.42;2.10;;;;;;;7.97;65.79;98721.44;689531;28;1407;-86
2022/11/22 00:46:31;;;;;;;3.97;2.25;;;;;;;7.95;65.92;98721.44;690488;28;1132;-86
2022/11/22 00:46:51;;;;;;;4.40;2.33;;;;;;;7.92;65.62;98719.69;682448;28;1442;-86
2022/11/22 00:47:12;;;;;;;3.67;2.50;;;;;;;7.96;65.71;98717.97;687451;28;1449;-86
2022/11/22 00:47:33;;;;;;;3.60;2.40;;;;;;;7.95;65.74;98714.53;690666;28;1023;-86
2022/11/22 00:47:53;;;;;;;2.77;2.20;;;;;;;7.91;66.15;98711.88;690410;28;1047;-86
2022/11/22 00:48:14;;;;;;;3.90;2.00;;;;;;;7.92;65.81;98709.28;687060;28;1156;-86
2022/11/22 00:50:16;;;;;;;2.65;1.90;;;;;;;7.90;65.97;98695.44;695673;28;1444;-86
2022/11/22 00:50:37;;;;;;;3.20;2.00;;;;;;;7.92;66.13;98705.84;690507;28;1485;-85
2022/11/22 00:50:58;;;;;;;3.05;2.08;;;;;;;7.98;65.90;98716.25;685160;28;1272;-85
2022/11/22 00:51:18;;;;;;;3.40;2.20;;;;;;;7.94;66.00;98702.38;687734;28;1195;-86
2022/11/22 00:51:39;;;;;;;3.05;2.25;;;;;;;7.91;65.85;98697.16;688098;28;803;-86
2022/11/22 00:52:00;;;;;;;2.93;2.13;;;;;;;7.93;66.25;98702.38;685110;28;1274;-85
2022/11/22 00:52:20;;;;;;;2.95;2.13;;;;;;;7.98;66.40;98711.03;684744;28;1275;-86
2022/11/22 00:52:41;;;;;;;2.53;2.03;;;;;;;7.90;66.20;98694.56;690578;28;1503;-85
2022/11/22 00:53:01;;;;;;;2.90;2.17;;;;;;;7.94;66.00;98709.31;687880;28;1028;-86
2022/11/22 00:53:22;;;;;;;2.45;2.00;;;;;;;8.00;66.36;98716.25;689894;28;1156;-86
2022/11/22 00:53:42;;;;;;;2.20;1.90;;;;;;;7.98;65.96;98715.38;696020;28;1010;-86
2022/11/22 00:54:03;;;;;;;2.10;1.90;;;;;;;7.96;66.30;98715.38;689613;28;1855;-86
2022/11/22 00:54:24;;;;;;;2.05;1.90;;;;;;;7.93;66.51;98710.19;689988;28;1201;-86
2022/11/22 00:54:44;;;;;;;2.70;2.15;;;;;;;7.99;66.54;98714.53;687962;28;819;-86
2022/11/22 00:55:06;;;;;;;2.93;2.37;;;;;;;7.91;66.83;98707.56;690244;28;1766;-86
2022/11/22 00:55:26;;;;;;;4.70;2.40;;;;;;;7.95;66.25;98706.72;690583;28;1166;-86
2022/11/22 00:55:47;;;;;;;4.70;2.37;;;;;;;7.93;66.41;98705.81;690400;28;1906;-86
2022/11/22 00:56:08;;;;;;;4.80;2.30;;;;;;;7.93;66.77;98710.19;687448;28;1387;-85
2022/11/22 00:56:30;;;;;;;3.13;2.37;;;;;;;7.97;66.59;98716.25;682678;29;1249;-86
2022/11/22 00:56:51;;;;;;;4.65;2.53;;;;;;;7.94;66.36;98715.34;687852;28;1376;-86
2022/11/22 00:57:12;;;;;;;4.80;2.50;;;;;;;7.93;66.62;98713.63;685966;28;1619;-86
2022/11/22 00:57:32;;;;;;;5.00;2.70;;;;;;;7.89;66.48;98703.22;688261;28;1539;-86
2022/11/22 00:57:53;;;;;;;3.92;2.70;;;;;;;7.90;66.79;98711.03;682519;28;1305;-86
2022/11/22 00:58:13;;;;;;;3.57;2.60;;;;;;;7.90;66.47;98711.03;685009;28;1248;-86
2022/11/22 00:58:34;;;;;;;2.53;2.33;;;;;;;7.95;66.53;98709.31;685071;28;1063;-86
2022/11/22 00:59:08;;;;;;;2.38;2.08;;;;;;;7.87;66.85;98700.59;687438;28;1892;-86
2022/11/22 00:59:28;;;;;;;2.67;2.00;;;;;;;7.93;66.83;98716.22;687742;28;979;-85
2022/11/22 00:59:49;;;;;;;4.27;2.40;;;;;;;7.86;66.76;98698.00;685649;28;1048;-86
2022/11/22 01:00:10;;;;;;;3.60;2.40;;;;;;;7.89;67.06;98714.47;688076;28;1242;-86
2022/11/22 01:00:31;;;;;;;3.25;2.72;;;;;;;7.87;66.71;98698.00;696101;28;1498;-86
2022/11/22 01:00:51;;;;;;;4.20;2.75;;;;;;;7.89;66.85;98703.22;693362;28;1450;-86
2022/11/22 01:01:12;;;;;;;4.38;2.60;;;;;;;7.90;66.53;98695.44;696685;28;1209;-86
2022/11/22 01:01:32;;;;;;;3.40;2.20;;;;;;;7.93;66.72;98700.63;687836;28;1343;-86
2022/11/22 01:01:53;;;;;;;2.10;1.90;;;;;;;7.92;66.54;98696.31;690382;28;1707;-86
2022/11/22 01:02:14;;;;;;;2.00;1.80;;;;;;;7.92;66.93;98698.06;685011;28;1206;-86
2022/11/22 01:02:34;;;;;;;2.27;1.87;;;;;;;7.99;66.99;98706.75;687787;28;1026;-86
2022/11/22 01:02:55;;;;;;;3.22;2.20;;;;;;;8.00;66.78;98713.66;690564;28;1090;-86
2022/11/22 01:03:16;;;;;;;3.67;2.40;;;;;;;7.95;66.92;98704.13;694113;28;1210;-86
2022/11/22 01:03:36;;;;;;;3.25;2.38;;;;;;;7.96;66.76;98699.78;693248;28;1190;-86
2022/11/22 01:03:57;;;;;;;2.57;2.30;;;;;;;7.94;66.72;98701.53;690466;28;1475;-86
2022/11/22 01:04:18;;;;;;;2.30;2.10;;;;;;;7.98;67.09;98710.19;687694;28;1217;-86
2022/11/22 01:04:38;;;;;;;2.80;2.00;;;;;;;7.97;66.83;98711.06;685119;28;878;-86
2022/11/22 01:04:59;;;;;;;2.80;1.97;;;;;;;7.91;67.17;98707.56;682507;28;1127;-86
2022/11/22 01:05:19;;;;;;;3.45;2.20;;;;;;;7.91;66.97;98704.97;686874;28;1350;-86
2022/11/22 01:05:40;;;;;;;4.37;2.40;;;;;;;7.95;66.96;98714.53;690611;28;845;-86
2022/11/22 01:06:01;;;;;;;4.13;2.50;;;;;;;8.00;66.68;98727.53;690360;28;1082;-86
2022/11/22 01:06:21;;;;;;;4.23;2.57;;;;;;;7.95;66.67;98714.53;687641;28;1421;-86
2022/11/22 01:06:42;;;;;;;4.82;2.75;;;;;;;7.92;67.00;98708.44;693354;28;1164;-86
2022/11/22 01:07:03;;;;;;;4.80;2.50;;;;;;;7.94;66.98;98723.16;692499;28;1570;-87
2022/11/22 01:07:23;;;;;;;4.32;2.53;;;;;;;7.93;67.30;98718.81;690429;28;1217;-86
2022/11/22 01:07:44;;;;;;;2.80;2.40;;;;;;;7.92;67.40;98714.47;685144;28;1343;-86
2022/11/22 01:08:04;;;;;;;3.13;2.33;;;;;;;7.97;67.17;98726.66;692443;28;1404;-86
2022/11/22 01:08:25;;;;;;;2.90;2.10;;;;;;;7.94;67.36;98717.94;693225;28;1195;-86
2022/11/22 01:08:46;;;;;;;3.95;2.20;;;;;;;7.95;67.12;98719.72;696316;28;763;-87
2022/11/22 01:09:06;;;;;;;3.58;2.30;;;;;;;7.94;67.11;98717.09;690171;28;1859;-86
2022/11/22 01:09:27;;;;;;;4.18;2.30;;;;;;;7.89;66.94;98714.47;693030;28;1288;-86
2022/11/22 01:09:48;;;;;;;3.50;2.20;;;;;;;7.88;67.34;98715.34;690463;28;1347;-86
2022/11/22 01:10:09;;;;;;;3.58;2.20;;;;;;;7.88;67.33;98709.28;690310;28;1461;-86
2022/11/22 01:10:30;;;;;;;3.20;2.00;;;;;;;7.86;67.15;98704.06;693154;28;1511;-87
2022/11/22 01:10:57;;;;;;;3.58;2.03;;;;;;;7.94;67.70;98712.75;693430;28;826;-86
2022/11/22 01:11:19;;;;;;;6.55;2.05;;;;;;;7.89;67.45;98704.09;694855;28;1721;-86
2022/11/22 01:11:41;;;;;;;7.55;2.10;;;;;;;7.94;67.49;98715.34;690611;28;1353;-86
2022/11/22 01:12:01;;;;;;;4.57;2.03;;;;;;;7.91;67.40;98707.56;693109;28;1544;-86
2022/11/22 01:12:22;;;;;;;4.57;2.10;;;;;;;7.88;67.48;98688.50;693148;28;1254;-86
2022/11/22 01:13:08;;;;;;;3.67;2.37;;;;;;;7.97;67.79;98716.25;690202;28;1878;-86
2022/11/22 01:13:29;;;;;;;5.68;2.55;;;;;;;7.94;67.51;98715.34;687747;28;1247;-86
2022/11/22 01:13:49;;;;;;;5.38;2.25;;;;;;;7.91;67.26;98712.75;687813;28;856;-86
2022/11/22 01:14:10;;;;;;;4.40;2.00;;;;;;;7.89;67.41;98711.88;694385;28;1472;-86
2022/11/22 01:14:31;;;;;;;3.55;2.20;;;;;;;7.87;67.35;98704.94;693563;28;1245;-86
2022/11/22 01:14:51;;;;;;;4.70;2.28;;;;;;;7.92;67.60;98706.69;690726;28;787;-86
2022/11/22 01:15:13;;;;;;;4.95;2.20;;;;;;;7.95;67.72;98711.94;687478;28;1218;-86
2022/11/22 01:15:34;;;;;;;3.28;2.30;;;;;;;7.86;67.69;98704.06;682125;28;1978;-86
2022/11/22 01:16:07;;;;;;;2.70;2.35;;;;;;;7.91;67.30;98717.06;682338;29;1397;-86
2022/11/22 01:16:27;;;;;;;3.47;2.60;;;;;;;7.89;67.65;98709.28;687420;28;1277;-86
2022/11/22 01:16:48;;;;;;;4.47;2.75;;;;;;;7.89;67.59;98711.88;690660;28;786;-86
2022/11/22 01:17:09;;;;;;;3.30;2.60;;;;;;;7.91;67.77;98717.94;693025;28;1510;-86
2022/11/22 01:17:29;;;;;;;3.13;2.30;;;;;;;7.95;67.46;98719.72;696093;28;963;-86
2022/11/22 01:17:50;;;;;;;3.70;2.30;;;;;;;7.86;67.62;98701.47;685146;28;1176;-86
2022/11/22 01:18:11;;;;;;;4.90;2.40;;;;;;;7.90;67.55;98712.72;689262;28;1531;-86
2022/11/22 01:18:32;;;;;;;4.82;2.40;;;;;;;7.92;67.46;98719.69;690358;28;1195;-86
2022/11/22 01:18:52;;;;;;;4.03;2.17;;;;;;;7.92;67.51;98719.69;690144;28;1684;-86
2022/11/22 01:19:13;;;;;;;3.60;2.10;;;;;;;7.93;67.71;98715.38;693832;28;1482;-86
2022/11/22 01:19:34;;;;;;;3.78;2.30;;;;;;;7.88;67.77;98712.75;687391;28;1298;-86
2022/11/22 01:19:54;;;;;;;3.50;2.60;;;;;;;7.94;67.45;98723.16;690262;28;1211;-86
2022/11/22 01:20:15;;;;;;;3.80;2.67;;;;;;;7.90;67.23;98721.41;695834;28;1071;-86
2022/11/22 01:20:36;;;;;;;5.50;2.70;;;;;;;7.87;67.75;98713.59;693174;28;1190;-86
2022/11/22 01:20:56;;;;;;;4.85;2.50;;;;;;;7.89;67.59;98722.28;687851;28;1253;-86
2022/11/22 01:21:17;;;;;;;5.73;2.57;;;;;;;7.84;67.77;98710.97;690090;28;1368;-86
2022/11/22 01:21:37;;;;;;;5.40;2.40;;;;;;;7.82;67.30;98704.91;696019;28;1085;-85
2022/11/22 01:21:58;;;;;;;6.60;2.60;;;;;;;7.84;67.75;98708.38;693292;28;1019;-86
2022/11/22 01:22:19;;;;;;;5.32;2.40;;;;;;;7.81;67.91;98705.78;690912;28;1267;-86
2022/11/22 01:23:15;;;;;;;4.00;2.30;;;;;;;7.91;67.69;98717.94;685103;28;892;-86
2022/11/22 01:23:37;;;;;;;4.45;2.60;;;;;;;7.90;67.41;98715.34;688313;28;976;-86
2022/11/22 01:23:57;;;;;;;4.88;2.80;;;;;;;7.88;68.14;98702.38;695448;28;1120;-86
2022/11/22 01:24:18;;;;;;;5.70;2.80;;;;;;;7.90;68.19;98704.94;687555;28;1461;-86
2022/11/22 01:24:38;;;;;;;3.80;2.50;;;;;;;7.83;67.50;98704.06;690423;28;1097;-86
2022/11/22 01:24:59;;;;;;;3.37;2.33;;;;;;;7.90;68.09;98708.44;690657;28;987;-86
2022/11/22 01:25:19;;;;;;;2.45;2.25;;;;;;;7.90;68.01;98703.22;690200;28;1507;-86
2022/11/22 01:25:43;;;;;;;3.15;2.25;;;;;;;7.86;67.77;98706.66;690684;28;926;-86
2022/11/22 01:26:10;;;;;;;4.40;2.22;;;;;;;7.84;67.85;98699.75;690314;28;1255;-86
2022/11/22 01:26:32;;;;;;;4.05;2.22;;;;;;;7.83;67.79;98704.06;687781;28;1168;-86
2022/11/22 01:26:53;;;;;;;2.85;2.10;;;;;;;7.85;68.29;98710.13;692549;28;1527;-86
2022/11/22 01:27:13;;;;;;;3.55;2.17;;;;;;;7.85;68.00;98706.66;687772;28;1080;-87
2022/11/22 01:27:34;;;;;;;4.03;2.27;;;;;;;7.86;67.81;98708.41;690495;28;1169;-86
2022/11/22 01:27:55;;;;;;;4.50;2.60;;;;;;;7.87;67.97;98713.59;693464;28;818;-86
2022/11/22 01:28:16;;;;;;;5.13;2.67;;;;;;;7.78;68.43;98697.94;692417;28;1534;-86
2022/11/22 01:28:37;;;;;;;5.95;2.88;;;;;;;7.79;67.98;98700.56;695070;28;1108;-86
2022/11/22 01:28:57;;;;;;;5.57;2.60;;;;;;;7.81;68.03;98700.59;690335;28;1264;-86
2022/11/22 01:29:18;;;;;;;5.70;2.60;;;;;;;7.79;68.15;98697.09;690130;28;1780;-86
2022/11/22 01:29:38;;;;;;;4.10;2.30;;;;;;;7.81;68.16;98703.19;690356;28;1135;-86
2022/11/22 01:29:59;;;;;;;3.58;2.20;;;;;;;7.81;68.37;98701.44;687361;28;1210;-86
2022/11/22 01:30:19;;;;;;;2.30;2.10;;;;;;;7.78;67.73;98705.75;687313;28;1376;-86
2022/11/22 01:30:41;;;;;;;3.50;2.20;;;;;;;7.81;68.24;98710.97;682649;29;811;-86
2022/11/22 01:31:02;;;;;;;3.63;2.40;;;;;;;7.82;67.99;98708.34;690272;28;1252;-86
2022/11/22 01:31:22;;;;;;;5.43;2.60;;;;;;;7.81;68.10;98703.19;692383;28;1216;-86
2022/11/22 01:31:43;;;;;;;4.05;2.50;;;;;;;7.77;68.04;98697.09;693247;28;879;-86
2022/11/22 01:32:04;;;;;;;4.57;2.55;;;;;;;7.85;68.24;98706.66;687649;28;989;-86
2022/11/22 01:32:46;;;;;;;3.13;2.30;;;;;;;7.93;67.74;98710.19;690497;28;1178;-86
2022/11/22 01:33:07;;;;;;;4.53;2.70;;;;;;;7.89;68.23;98711.88;692858;28;1414;-86
2022/11/22 01:33:28;;;;;;;4.22;2.55;;;;;;;7.85;68.28;98702.31;693154;28;1288;-85
2022/11/22 01:33:48;;;;;;;3.13;2.20;;;;;;;7.90;68.07;98698.03;690403;28;1886;-86
2022/11/22 01:34:09;;;;;;;3.97;2.30;;;;;;;7.95;67.76;98704.13;690151;28;1485;-86
2022/11/22 01:34:30;;;;;;;4.70;2.50;;;;;;;7.87;67.84;98703.19;690184;28;1179;-86
2022/11/22 01:34:51;;;;;;;4.97;2.57;;;;;;;7.92;67.98;98706.69;693341;28;1231;-86
2022/11/22 01:35:11;;;;;;;5.38;2.47;;;;;;;7.94;68.00;98706.72;690691;28;1232;-86
2022/11/22 01:35:32;;;;;;;6.22;2.60;;;;;;;7.83;68.21;98691.06;688278;28;1971;-86
2022/11/22 01:36:01;;;;;;;5.43;2.60;;;;;;;7.80;68.08;98702.31;691189;28;1888;-86
2022/11/22 01:36:22;;;;;;;3.33;2.40;;;;;;;7.80;68.24;98698.84;692658;28;1120;-86
2022/11/22 01:36:43;;;;;;;2.45;2.25;;;;;;;7.75;68.37;98690.16;689542;28;779;-87
2022/11/22 01:37:03;;;;;;;2.40;2.20;;;;;;;7.79;68.48;98697.97;688230;28;1565;-86
2022/11/22 01:37:24;;;;;;;2.50;2.30;;;;;;;7.80;68.43;98704.91;686094;28;1377;-86
2022/11/22 01:37:44;;;;;;;3.22;2.50;;;;;;;7.78;68.50;98695.34;685723;28;1330;-86
2022/11/22 01:38:05;;;;;;;3.67;2.50;;;;;;;7.78;68.50;98697.94;688105;28;1533;-86
2022/11/22 01:38:26;;;;;;;3.78;2.45;;;;;;;7.80;68.13;98698.84;690812;28;1198;-86
2022/11/22 01:38:46;;;;;;;2.90;2.25;;;;;;;7.79;68.42;98700.56;687727;28;803;-86
2022/11/22 01:39:07;;;;;;;3.13;2.10;;;;;;;7.75;68.49;98690.16;694442;28;1053;-85
2022/11/22 01:39:28;;;;;;;3.42;2.30;;;;;;;7.78;68.71;98693.63;690819;28;1197;-86
2022/11/22 01:39:49;;;;;;;4.15;2.40;;;;;;;7.72;68.39;98684.94;690753;28;801;-86
2022/11/22 01:40:10;;;;;;;5.75;2.40;;;;;;;7.76;68.78;98694.50;688076;28;1266;-86
2022/11/22 01:40:31;;;;;;;6.50;2.20;;;;;;;7.74;68.25;98691.03;690839;28;1754;-86
2022/11/22 01:40:53;;;;;;;6.47;2.20;;;;;;;7.78;68.47;98695.34;699278;28;1235;-86
2022/11/22 01:41:13;;;;;;;5.28;2.60;;;;;;;7.79;68.27;98695.38;695148;28;1320;-87
2022/11/22 01:41:34;;;;;;;3.67;2.50;;;;;;;7.84;68.62;98700.59;688241;28;1089;-86
2022/11/22 01:41:55;;;;;;;3.22;2.42;;;;;;;7.79;68.85;98715.25;685610;28;1205;-86
2022/11/22 01:42:15;;;;;;;3.00;2.20;;;;;;;7.76;68.79;98694.50;685306;28;1774;-86
2022/11/22 01:42:52;;;;;;;3.70;2.20;;;;;;;7.81;68.80;98706.63;688364;28;1049;-86
2022/11/22 01:43:22;;;;;;;4.65;2.40;;;;;;;7.83;68.51;98709.25;689203;28;1526;-86
2022/11/22 01:43:43;;;;;;;3.60;2.40;;;;;;;7.83;68.56;98704.06;691159;28;901;-86
2022/11/22 01:44:27;;;;;;;2.90;2.50;;;;;;;7.82;68.37;98702.31;685430;28;1458;-86
2022/11/22 01:44:49;;;;;;;3.80;2.63;;;;;;;7.79;68.37;98697.97;689363;28;797;-86
2022/11/22 01:45:28;;;;;;;3.55;2.58;;;;;;;7.91;68.88;98714.47;683183;28;1363;-86
2022/11/22 01:45:51;;;;;;;3.70;2.50;;;;;;;7.85;68.74;98711.84;689018;28;875;-86
2022/11/22 01:46:31;;;;;;;2.95;2.40;;;;;;;7.91;68.37;98719.66;687750;28;1343;-86
2022/11/22 01:46:59;;;;;;;3.92;2.40;;;;;;;7.85;68.64;98704.91;693727;28;850;-87
2022/11/22 01:47:23;;;;;;;4.28;2.20;;;;;;;7.81;68.43;98700.59;693483;28;1074;-86
2022/11/22 01:47:44;;;;;;;3.90;2.15;;;;;;;7.86;68.72;98708.41;690696;28;1628;-86